createdAt,value
2018-07-16T00:00:03.929Z,11.78
2018-07-16T00:01:03.923Z,11.76
2018-07-16T00:02:03.925Z,11.76
2018-07-16T00:03:03.995Z,11.72
2018-07-16T00:04:03.925Z,11.69
2018-07-16T00:05:04.002Z,11.67
2018-07-16T00:06:03.995Z,11.68
2018-07-16T00:07:03.997Z,11.65
2018-07-16T00:08:03.926Z,11.62
2018-07-16T00:09:03.939Z,11.61
2018-07-16T00:10:03.901Z,11.58
2018-07-16T00:11:03.993Z,11.58
2018-07-16T00:12:03.905Z,11.57
2018-07-16T00:13:03.918Z,11.57
2018-07-16T00:14:03.998Z,11.51
2018-07-16T00:15:03.923Z,11.46
2018-07-16T00:16:03.992Z,11.42
2018-07-16T00:17:03.923Z,11.46
2018-07-16T00:18:03.939Z,11.49
2018-07-16T00:19:04.034Z,11.49
2018-07-16T00:20:04.041Z,11.50
2018-07-16T00:21:04.009Z,11.54
2018-07-16T00:22:03.907Z,11.56
2018-07-16T00:23:03.982Z,11.54
2018-07-16T00:24:04.007Z,11.51
2018-07-16T00:25:03.968Z,11.47
2018-07-16T00:26:04.010Z,11.43
2018-07-16T00:27:04.024Z,11.42
2018-07-16T00:28:04.004Z,11.38
2018-07-16T00:29:03.950Z,11.35
2018-07-16T00:30:03.996Z,11.33
2018-07-16T00:31:03.899Z,11.31
2018-07-16T00:32:03.931Z,11.28
2018-07-16T00:33:04.004Z,11.32
2018-07-16T00:34:03.969Z,11.39
2018-07-16T00:35:03.954Z,11.42
2018-07-16T00:36:03.921Z,11.43
2018-07-16T00:37:04.004Z,11.42
2018-07-16T00:38:03.991Z,11.38
2018-07-16T00:39:03.920Z,11.35
2018-07-16T00:40:03.940Z,11.33
2018-07-16T00:41:04.052Z,11.32
2018-07-16T00:42:04.019Z,11.28
2018-07-16T00:43:03.938Z,11.25
2018-07-16T00:44:04.060Z,11.22
2018-07-16T00:45:03.986Z,11.21
2018-07-16T00:46:03.999Z,11.22
2018-07-16T00:47:03.986Z,11.24
2018-07-16T00:48:03.961Z,11.20
2018-07-16T00:49:04.027Z,11.20
2018-07-16T00:50:03.961Z,11.17
2018-07-16T00:51:04.020Z,11.14
2018-07-16T00:52:04.026Z,11.11
2018-07-16T00:53:03.965Z,11.10
2018-07-16T00:54:04.025Z,11.09
2018-07-16T00:55:03.981Z,11.05
2018-07-16T00:56:03.969Z,11.05
2018-07-16T00:57:04.029Z,10.98
2018-07-16T00:58:03.985Z,10.94
2018-07-16T00:59:03.938Z,10.90
2018-07-16T01:00:03.990Z,10.90
2018-07-16T01:01:03.990Z,10.93
2018-07-16T01:02:03.958Z,10.93
2018-07-16T01:03:03.990Z,10.91
2018-07-16T01:04:03.959Z,10.91
2018-07-16T01:05:03.932Z,10.88
2018-07-16T01:06:03.934Z,10.86
2018-07-16T01:07:04.023Z,10.84
2018-07-16T01:08:04.041Z,10.83
2018-07-16T01:09:03.974Z,10.83
2018-07-16T01:10:04.048Z,10.84
2018-07-16T01:11:04.091Z,10.83
2018-07-16T01:12:04.001Z,10.90
2018-07-16T01:13:04.054Z,10.95
2018-07-16T01:14:03.974Z,11.00
2018-07-16T01:15:04.051Z,11.00
2018-07-16T01:16:03.977Z,11.00
2018-07-16T01:17:04.045Z,10.98
2018-07-16T01:18:04.022Z,10.95
2018-07-16T01:19:04.009Z,10.93
2018-07-16T01:20:04.005Z,10.91
2018-07-16T01:21:04.080Z,10.88
2018-07-16T01:22:03.982Z,10.86
2018-07-16T01:23:04.111Z,10.84
2018-07-16T01:24:04.054Z,10.83
2018-07-16T01:25:04.010Z,10.81
2018-07-16T01:26:04.074Z,10.77
2018-07-16T01:27:04.007Z,10.74
2018-07-16T01:28:04.088Z,10.68
2018-07-16T01:29:04.009Z,10.64
2018-07-16T01:30:04.081Z,10.64
2018-07-16T01:31:04.090Z,10.61
2018-07-16T01:32:04.055Z,10.60
2018-07-16T01:33:04.017Z,10.58
2018-07-16T01:34:03.991Z,10.58
2018-07-16T01:35:04.063Z,10.57
2018-07-16T01:36:04.025Z,10.57
2018-07-16T01:37:04.052Z,10.58
2018-07-16T01:38:04.076Z,10.58
2018-07-16T01:39:04.039Z,10.57
2018-07-16T01:40:04.098Z,10.53
2018-07-16T01:41:04.027Z,10.52
2018-07-16T01:42:04.021Z,10.50
2018-07-16T01:43:04.037Z,10.46
2018-07-16T01:44:04.100Z,10.49
2018-07-16T01:45:04.044Z,10.47
2018-07-16T01:46:04.037Z,10.43
2018-07-16T01:47:04.035Z,10.42
2018-07-16T01:48:04.123Z,10.46
2018-07-16T01:49:04.024Z,10.56
2018-07-16T01:50:04.035Z,10.52
2018-07-16T01:51:04.040Z,10.53
2018-07-16T01:52:04.044Z,10.54
2018-07-16T01:53:04.021Z,10.52
2018-07-16T01:54:04.036Z,10.52
2018-07-16T01:55:04.084Z,10.49
2018-07-16T01:56:04.040Z,10.46
2018-07-16T01:57:03.967Z,10.45
2018-07-16T01:58:04.095Z,10.45
2018-07-16T01:59:04.010Z,10.42
2018-07-16T02:00:04.005Z,10.36
2018-07-16T02:01:04.072Z,10.35
2018-07-16T02:02:04.073Z,10.32
2018-07-16T02:03:04.027Z,10.31
2018-07-16T02:04:04.018Z,10.31
2018-07-16T02:05:04.006Z,10.34
2018-07-16T02:06:08.272Z,10.35
2018-07-16T02:07:04.006Z,10.34
2018-07-16T02:08:04.016Z,10.30
2018-07-16T02:09:03.979Z,10.30
2018-07-16T02:10:04.078Z,10.32
2018-07-16T02:11:04.080Z,10.31
2018-07-16T02:12:04.120Z,10.39
2018-07-16T02:13:04.109Z,10.38
2018-07-16T02:14:04.001Z,10.36
2018-07-16T02:15:04.025Z,10.34
2018-07-16T02:16:03.983Z,10.34
2018-07-16T02:17:04.059Z,10.31
2018-07-16T02:18:03.977Z,10.25
2018-07-16T02:19:04.062Z,10.23
2018-07-16T02:20:03.974Z,10.17
2018-07-16T02:21:04.017Z,10.16
2018-07-16T02:22:04.078Z,10.13
2018-07-16T02:23:04.072Z,10.11
2018-07-16T02:24:03.961Z,10.13
2018-07-16T02:25:04.025Z,10.06
2018-07-16T02:26:04.078Z,10.08
2018-07-16T02:27:04.013Z,10.05
2018-07-16T02:28:03.902Z,10.09
2018-07-16T02:29:04.023Z,10.09
2018-07-16T02:30:04.014Z,10.11
2018-07-16T02:31:04.021Z,10.17
2018-07-16T02:32:03.974Z,10.16
2018-07-16T02:33:03.907Z,10.14
2018-07-16T02:34:03.972Z,10.13
2018-07-16T02:35:03.939Z,10.14
2018-07-16T02:36:04.028Z,10.17
2018-07-16T02:37:03.964Z,10.08
2018-07-16T02:38:04.062Z,10.11
2018-07-16T02:39:04.097Z,10.16
2018-07-16T02:40:04.140Z,10.13
2018-07-16T02:41:04.067Z,10.09
2018-07-16T02:42:04.078Z,10.06
2018-07-16T02:43:04.137Z,10.04
2018-07-16T02:44:04.131Z,10.02
2018-07-16T02:45:04.139Z,10.01
2018-07-16T02:46:04.137Z,10.02
2018-07-16T02:47:04.147Z,10.02
2018-07-16T02:48:04.000Z,10.04
2018-07-16T02:49:04.063Z,10.04
2018-07-16T02:50:04.000Z,10.01
2018-07-16T02:51:04.003Z,10.00
2018-07-16T02:52:04.087Z,9.98
2018-07-16T02:53:04.035Z,10.02
2018-07-16T02:54:03.998Z,9.98
2018-07-16T02:55:04.102Z,10.01
2018-07-16T02:56:04.094Z,10.00
2018-07-16T02:57:03.996Z,10.02
2018-07-16T02:58:04.113Z,10.04
2018-07-16T02:59:04.104Z,10.02
2018-07-16T03:00:04.159Z,10.00
2018-07-16T03:01:04.120Z,9.98
2018-07-16T03:02:04.131Z,9.95
2018-07-16T03:03:04.158Z,9.94
2018-07-16T03:04:04.145Z,9.94
2018-07-16T03:05:04.091Z,9.94
2018-07-16T03:06:04.022Z,9.91
2018-07-16T03:07:04.095Z,9.91
2018-07-16T03:08:04.155Z,9.91
2018-07-16T03:09:04.053Z,9.89
2018-07-16T03:10:04.070Z,9.86
2018-07-16T03:11:04.076Z,9.86
2018-07-16T03:12:04.045Z,9.84
2018-07-16T03:13:04.077Z,9.79
2018-07-16T03:14:04.082Z,9.75
2018-07-16T03:15:04.056Z,9.78
2018-07-16T03:16:04.016Z,9.79
2018-07-16T03:17:03.989Z,9.79
2018-07-16T03:18:04.085Z,9.79
2018-07-16T03:19:04.125Z,9.76
2018-07-16T03:20:04.151Z,9.73
2018-07-16T03:21:04.075Z,9.72
2018-07-16T03:22:04.164Z,9.69
2018-07-16T03:23:04.127Z,9.66
2018-07-16T03:24:04.093Z,9.73
2018-07-16T03:25:04.049Z,9.75
2018-07-16T03:26:04.166Z,9.78
2018-07-16T03:27:04.072Z,9.82
2018-07-16T03:28:04.173Z,9.82
2018-07-16T03:29:04.109Z,9.83
2018-07-16T03:30:04.039Z,9.82
2018-07-16T03:31:04.041Z,9.79
2018-07-16T03:32:04.153Z,9.79
2018-07-16T03:33:04.134Z,9.76
2018-07-16T03:34:04.161Z,9.73
2018-07-16T03:35:04.135Z,9.72
2018-07-16T03:36:04.139Z,9.69
2018-07-16T03:37:04.064Z,9.66
2018-07-16T03:38:04.076Z,9.66
2018-07-16T03:39:04.046Z,9.65
2018-07-16T03:40:04.137Z,9.64
2018-07-16T03:41:04.146Z,9.64
2018-07-16T03:42:04.070Z,9.66
2018-07-16T03:43:04.069Z,9.65
2018-07-16T03:44:04.151Z,9.64
2018-07-16T03:45:04.092Z,9.65
2018-07-16T03:46:04.073Z,9.64
2018-07-16T03:47:04.141Z,9.64
2018-07-16T03:48:04.090Z,9.65
2018-07-16T03:49:04.133Z,9.68
2018-07-16T03:50:04.131Z,9.69
2018-07-16T03:51:04.022Z,9.69
2018-07-16T03:52:04.050Z,9.76
2018-07-16T03:53:04.100Z,9.76
2018-07-16T03:54:04.137Z,9.79
2018-07-16T03:55:04.101Z,9.78
2018-07-16T03:56:04.142Z,9.76
2018-07-16T03:57:04.050Z,9.75
2018-07-16T03:58:04.101Z,9.76
2018-07-16T03:59:04.086Z,9.76
2018-07-16T04:00:04.151Z,9.75
2018-07-16T04:01:04.080Z,9.72
2018-07-16T04:02:04.152Z,9.72
2018-07-16T04:03:04.092Z,9.75
2018-07-16T04:04:04.153Z,9.76
2018-07-16T04:05:04.158Z,9.76
2018-07-16T04:06:04.092Z,9.76
2018-07-16T04:07:04.080Z,9.75
2018-07-16T04:08:04.103Z,9.75
2018-07-16T04:09:04.172Z,9.73
2018-07-16T04:10:04.145Z,9.73
2018-07-16T04:11:04.180Z,9.76
2018-07-16T04:12:04.176Z,9.83
2018-07-16T04:13:04.078Z,9.89
2018-07-16T04:14:04.123Z,9.93
2018-07-16T04:15:04.197Z,9.94
2018-07-16T04:16:04.123Z,9.97
2018-07-16T04:17:04.117Z,9.98
2018-07-16T04:18:04.092Z,9.98
2018-07-16T04:19:04.166Z,10.02
2018-07-16T04:20:04.188Z,10.02
2018-07-16T04:21:04.181Z,10.05
2018-07-16T04:22:04.199Z,10.06
2018-07-16T04:23:04.144Z,10.08
2018-07-16T04:24:04.092Z,10.16
2018-07-16T04:25:04.087Z,10.17
2018-07-16T04:26:04.133Z,10.18
2018-07-16T04:27:04.125Z,10.20
2018-07-16T04:28:04.173Z,10.23
2018-07-16T04:29:04.139Z,10.21
2018-07-16T04:30:04.100Z,10.23
2018-07-16T04:31:04.340Z,10.24
2018-07-16T04:32:04.156Z,10.25
2018-07-16T04:33:04.083Z,10.31
2018-07-16T04:34:04.135Z,10.38
2018-07-16T04:35:04.136Z,10.39
2018-07-16T04:36:04.216Z,10.46
2018-07-16T04:37:04.083Z,10.52
2018-07-16T04:38:04.076Z,10.57
2018-07-16T04:39:04.103Z,10.60
2018-07-16T04:40:04.086Z,10.61
2018-07-16T04:41:04.202Z,10.67
2018-07-16T04:42:04.125Z,10.68
2018-07-16T04:43:04.152Z,10.67
2018-07-16T04:44:04.135Z,10.67
2018-07-16T04:45:04.094Z,10.68
2018-07-16T04:46:04.161Z,10.69
2018-07-16T04:47:04.142Z,10.72
2018-07-16T04:48:04.181Z,10.79
2018-07-16T04:49:04.155Z,10.83
2018-07-16T04:50:04.209Z,10.84
2018-07-16T04:51:04.168Z,10.83
2018-07-16T04:52:04.186Z,10.86
2018-07-16T04:53:04.187Z,10.88
2018-07-16T04:54:04.202Z,10.88
2018-07-16T04:55:04.184Z,10.93
2018-07-16T04:56:04.299Z,10.98
2018-07-16T04:57:04.223Z,11.05
2018-07-16T04:58:04.209Z,11.06
2018-07-16T04:59:04.180Z,11.09
2018-07-16T05:00:04.107Z,11.13
2018-07-16T05:01:04.061Z,11.13
2018-07-16T05:02:04.057Z,11.20
2018-07-16T05:03:04.229Z,11.25
2018-07-16T05:04:04.153Z,11.27
2018-07-16T05:05:04.127Z,11.32
2018-07-16T05:06:04.115Z,11.35
2018-07-16T05:07:04.065Z,11.38
2018-07-16T05:08:04.153Z,11.43
2018-07-16T05:09:04.120Z,11.45
2018-07-16T05:10:04.189Z,11.51
2018-07-16T05:11:04.097Z,11.54
2018-07-16T05:12:04.221Z,11.58
2018-07-16T05:13:04.232Z,11.64
2018-07-16T05:14:04.232Z,11.68
2018-07-16T05:15:04.273Z,11.75
2018-07-16T05:16:04.173Z,11.83
2018-07-16T05:17:04.235Z,11.87
2018-07-16T05:18:04.236Z,11.94
2018-07-16T05:19:04.241Z,11.97
2018-07-16T05:20:04.109Z,12.06
2018-07-16T05:21:04.158Z,12.13
2018-07-16T05:22:04.267Z,12.18
2018-07-16T05:23:04.202Z,12.22
2018-07-16T05:24:04.242Z,12.28
2018-07-16T05:25:04.247Z,12.32
2018-07-16T05:26:04.161Z,12.35
2018-07-16T05:27:04.227Z,12.42
2018-07-16T05:28:04.259Z,12.46
2018-07-16T05:29:04.211Z,12.48
2018-07-16T05:30:04.144Z,12.53
2018-07-16T05:31:04.209Z,12.60
2018-07-16T05:32:04.261Z,12.64
2018-07-16T05:33:04.213Z,12.71
2018-07-16T05:34:04.150Z,12.76
2018-07-16T05:35:04.221Z,12.83
2018-07-16T05:36:04.151Z,12.91
2018-07-16T05:37:04.102Z,12.98
2018-07-16T05:38:04.186Z,13.07
2018-07-16T05:39:04.122Z,13.13
2018-07-16T05:40:04.124Z,13.16
2018-07-16T05:41:04.266Z,13.24
2018-07-16T05:42:04.128Z,13.32
2018-07-16T05:43:04.193Z,13.42
2018-07-16T05:44:04.255Z,13.50
2018-07-16T05:45:04.250Z,13.59
2018-07-16T05:46:04.144Z,13.68
2018-07-16T05:47:04.240Z,13.75
2018-07-16T05:48:04.153Z,13.79
2018-07-16T05:49:04.231Z,13.88
2018-07-16T05:50:04.225Z,13.95
2018-07-16T05:51:04.154Z,14.04
2018-07-16T05:52:04.225Z,14.14
2018-07-16T05:53:04.224Z,14.27
2018-07-16T05:54:04.165Z,14.40
2018-07-16T05:55:04.230Z,14.65
2018-07-16T05:56:04.174Z,14.89
2018-07-16T05:57:04.171Z,15.15
2018-07-16T05:58:04.115Z,15.39
2018-07-16T05:59:04.139Z,15.65
2018-07-16T06:00:04.165Z,15.84
2018-07-16T06:01:04.185Z,16.05
2018-07-16T06:02:04.102Z,16.06
2018-07-16T06:03:04.218Z,16.22
2018-07-16T06:04:04.175Z,16.50
2018-07-16T06:05:04.141Z,16.59
2018-07-16T06:06:04.228Z,16.66
2018-07-16T06:07:04.224Z,16.85
2018-07-16T06:08:04.139Z,17.02
2018-07-16T06:09:04.213Z,17.16
2018-07-16T06:10:04.240Z,17.31
2018-07-16T06:11:04.175Z,17.33
2018-07-16T06:12:04.239Z,17.39
2018-07-16T06:13:04.175Z,17.57
2018-07-16T06:14:04.178Z,17.60
2018-07-16T06:15:04.172Z,17.65
2018-07-16T06:16:04.243Z,17.71
2018-07-16T06:17:04.249Z,17.84
2018-07-16T06:18:04.176Z,17.98
2018-07-16T06:19:04.286Z,18.27
2018-07-16T06:20:04.209Z,18.61
2018-07-16T06:21:04.281Z,18.79
2018-07-16T06:22:04.211Z,18.72
2018-07-16T06:23:04.226Z,18.69
2018-07-16T06:24:04.344Z,18.88
2018-07-16T06:25:04.277Z,18.95
2018-07-16T06:26:04.229Z,18.98
2018-07-16T06:27:04.277Z,19.12
2018-07-16T06:28:04.234Z,19.08
2018-07-16T06:29:04.190Z,19.19
2018-07-16T06:30:04.254Z,19.15
2018-07-16T06:31:04.250Z,19.19
2018-07-16T06:32:04.187Z,19.20
2018-07-16T06:33:04.186Z,19.19
2018-07-16T06:34:04.191Z,19.27
2018-07-16T06:35:04.255Z,19.47
2018-07-16T06:37:04.259Z,19.46
2018-07-16T06:38:04.193Z,19.54
2018-07-16T06:39:04.161Z,19.53
2018-07-16T06:40:04.305Z,19.53
2018-07-16T06:41:04.615Z,19.72
2018-07-16T06:42:04.224Z,19.98
2018-07-16T06:43:04.283Z,20.21
2018-07-16T06:44:04.281Z,20.38
2018-07-16T06:45:04.293Z,20.54
2018-07-16T06:46:04.302Z,20.60
2018-07-16T06:47:04.223Z,20.77
2018-07-16T06:48:04.269Z,20.80
2018-07-16T06:49:04.286Z,20.84
2018-07-16T06:50:04.280Z,20.86
2018-07-16T06:51:04.287Z,21.10
2018-07-16T06:52:04.175Z,21.29
2018-07-16T06:53:04.283Z,21.31
2018-07-16T06:54:04.208Z,21.47
2018-07-16T06:55:04.257Z,21.64
2018-07-16T06:56:04.298Z,21.72
2018-07-16T06:57:04.226Z,21.97
2018-07-16T06:58:04.272Z,22.17
2018-07-16T06:59:04.247Z,22.21
2018-07-16T07:00:04.333Z,22.14
2018-07-16T07:01:04.217Z,22.21
2018-07-16T07:02:04.234Z,22.09
2018-07-16T07:03:04.308Z,21.86
2018-07-16T07:04:04.259Z,21.69
2018-07-16T07:05:04.295Z,21.76
2018-07-16T07:06:04.300Z,21.80
2018-07-16T07:07:04.181Z,21.97
2018-07-16T07:08:04.233Z,22.17
2018-07-16T07:09:04.306Z,22.45
2018-07-16T07:10:04.283Z,22.72
2018-07-16T07:11:04.185Z,22.93
2018-07-16T07:12:04.190Z,23.11
2018-07-16T07:13:04.190Z,22.88
2018-07-16T07:14:04.282Z,22.68
2018-07-16T07:15:04.224Z,22.76
2018-07-16T07:16:04.300Z,22.77
2018-07-16T07:17:04.252Z,22.97
2018-07-16T07:18:04.302Z,23.15
2018-07-16T07:19:04.192Z,23.34
2018-07-16T07:20:04.276Z,23.44
2018-07-16T07:21:04.279Z,23.35
2018-07-16T07:22:04.194Z,23.38
2018-07-16T07:23:04.222Z,23.39
2018-07-16T07:24:04.178Z,23.60
2018-07-16T07:25:04.266Z,23.56
2018-07-16T07:26:04.277Z,23.64
2018-07-16T07:27:04.190Z,23.67
2018-07-16T07:28:04.162Z,23.72
2018-07-16T07:29:04.300Z,23.68
2018-07-16T07:30:04.248Z,23.64
2018-07-16T07:31:04.262Z,23.54
2018-07-16T07:32:04.266Z,23.68
2018-07-16T07:33:04.336Z,23.97
2018-07-16T07:34:04.312Z,24.20
2018-07-16T07:35:04.357Z,24.25
2018-07-16T07:36:04.253Z,24.18
2018-07-16T07:37:04.306Z,24.20
2018-07-16T07:38:04.225Z,24.25
2018-07-16T07:39:04.298Z,24.51
2018-07-16T07:40:04.281Z,24.57
2018-07-16T07:41:04.224Z,24.37
2018-07-16T07:42:04.322Z,24.60
2018-07-16T07:43:04.340Z,24.70
2018-07-16T07:44:04.333Z,24.72
2018-07-16T07:45:04.207Z,24.77
2018-07-16T07:46:04.302Z,24.70
2018-07-16T07:47:04.264Z,24.51
2018-07-16T07:48:04.305Z,24.49
2018-07-16T07:49:04.312Z,24.60
2018-07-16T07:50:04.345Z,24.66
2018-07-16T07:51:04.283Z,24.68
2018-07-16T07:52:04.333Z,24.78
2018-07-16T07:53:04.351Z,24.89
2018-07-16T07:54:04.310Z,25.02
2018-07-16T07:55:04.997Z,25.01
2018-07-16T07:56:04.329Z,24.78
2018-07-16T07:57:04.281Z,25.05
2018-07-16T07:58:04.293Z,25.26
2018-07-16T07:59:04.264Z,25.40
2018-07-16T08:00:04.225Z,25.51
2018-07-16T08:01:04.340Z,25.71
2018-07-16T08:02:04.315Z,25.68
2018-07-16T08:03:04.314Z,25.86
2018-07-16T08:04:04.336Z,26.03
2018-07-16T08:05:04.238Z,25.92
2018-07-16T08:06:04.344Z,25.77
2018-07-16T08:07:04.341Z,25.68
2018-07-16T08:08:04.281Z,25.95
2018-07-16T08:09:04.366Z,25.88
2018-07-16T08:10:04.339Z,25.78
2018-07-16T08:11:04.287Z,25.71
2018-07-16T08:12:04.345Z,25.84
2018-07-16T08:13:04.297Z,25.99
2018-07-16T08:14:04.353Z,25.91
2018-07-16T08:15:04.359Z,25.86
2018-07-16T08:16:04.251Z,25.86
2018-07-16T08:17:04.324Z,25.93
2018-07-16T08:18:04.347Z,25.92
2018-07-16T08:19:04.285Z,25.93
2018-07-16T08:20:04.254Z,26.06
2018-07-16T08:21:04.306Z,26.19
2018-07-16T08:22:04.327Z,26.33
2018-07-16T08:23:04.236Z,26.38
2018-07-16T08:24:04.332Z,26.30
2018-07-16T08:25:04.346Z,26.29
2018-07-16T08:26:04.309Z,26.41
2018-07-16T08:27:04.354Z,26.36
2018-07-16T08:28:04.415Z,26.45
2018-07-16T08:29:04.297Z,26.40
2018-07-16T08:30:04.344Z,26.54
2018-07-16T08:31:04.275Z,26.55
2018-07-16T08:32:04.268Z,26.59
2018-07-16T08:33:04.336Z,26.67
2018-07-16T08:34:04.351Z,26.70
2018-07-16T08:35:04.299Z,26.77
2018-07-16T08:36:04.277Z,26.79
2018-07-16T08:37:04.340Z,26.84
2018-07-16T08:38:04.273Z,26.99
2018-07-16T08:39:04.314Z,27.08
2018-07-16T08:40:04.314Z,27.08
2018-07-16T08:41:04.345Z,27.11
2018-07-16T08:42:04.273Z,27.04
2018-07-16T08:43:04.344Z,27.19
2018-07-16T08:44:04.304Z,26.92
2018-07-16T08:45:04.343Z,26.64
2018-07-16T08:46:04.283Z,26.55
2018-07-16T08:47:04.343Z,26.32
2018-07-16T08:48:04.276Z,26.48
2018-07-16T08:49:04.255Z,26.67
2018-07-16T08:50:04.251Z,26.79
2018-07-16T08:51:04.283Z,26.92
2018-07-16T08:52:04.340Z,26.95
2018-07-16T08:53:04.341Z,26.85
2018-07-16T08:54:04.337Z,26.79
2018-07-16T08:55:04.270Z,26.99
2018-07-16T08:56:04.259Z,27.10
2018-07-16T08:57:04.301Z,27.11
2018-07-16T08:58:04.348Z,27.32
2018-07-16T08:59:04.311Z,27.47
2018-07-16T09:00:04.310Z,27.43
2018-07-16T09:01:04.266Z,27.34
2018-07-16T09:02:04.245Z,27.28
2018-07-16T09:03:04.259Z,27.48
2018-07-16T09:04:04.364Z,27.54
2018-07-16T09:05:04.231Z,27.15
2018-07-16T09:06:04.279Z,27.15
2018-07-16T09:07:04.394Z,27.14
2018-07-16T09:08:04.301Z,27.17
2018-07-16T09:09:04.332Z,27.29
2018-07-16T09:10:04.327Z,27.44
2018-07-16T09:11:04.565Z,27.58
2018-07-16T09:12:04.336Z,27.44
2018-07-16T09:13:04.267Z,27.57
2018-07-16T09:14:04.263Z,27.66
2018-07-16T09:15:04.385Z,27.73
2018-07-16T09:16:04.264Z,27.80
2018-07-16T09:17:04.341Z,28.03
2018-07-16T09:18:04.341Z,28.21
2018-07-16T09:19:04.324Z,28.31
2018-07-16T09:20:04.333Z,28.50
2018-07-16T09:21:04.389Z,28.61
2018-07-16T09:22:04.341Z,28.65
2018-07-16T09:23:04.408Z,28.71
2018-07-16T09:24:04.307Z,28.60
2018-07-16T09:25:04.400Z,28.83
2018-07-16T09:26:04.291Z,28.87
2018-07-16T09:27:04.310Z,28.84
2018-07-16T09:28:04.391Z,28.72
2018-07-16T09:29:04.370Z,28.69
2018-07-16T09:30:04.417Z,28.31
2018-07-16T09:31:04.311Z,27.82
2018-07-16T09:32:04.348Z,27.65
2018-07-16T09:33:04.284Z,27.43
2018-07-16T09:34:04.375Z,27.04
2018-07-16T09:35:04.354Z,26.95
2018-07-16T09:36:04.410Z,27.08
2018-07-16T09:37:04.318Z,27.04
2018-07-16T09:38:04.374Z,27.37
2018-07-16T09:39:04.409Z,27.61
2018-07-16T09:40:04.285Z,27.88
2018-07-16T09:41:04.351Z,28.02
2018-07-16T09:42:04.345Z,28.14
2018-07-16T09:43:04.466Z,28.39
2018-07-16T09:44:04.345Z,28.71
2018-07-16T09:45:04.391Z,28.80
2018-07-16T09:46:04.399Z,28.91
2018-07-16T09:47:04.418Z,28.97
2018-07-16T09:48:04.405Z,29.18
2018-07-16T09:49:04.385Z,29.28
2018-07-16T09:50:04.320Z,29.34
2018-07-16T09:51:04.319Z,29.28
2018-07-16T09:52:04.385Z,29.09
2018-07-16T09:53:04.325Z,28.88
2018-07-16T09:54:04.393Z,28.91
2018-07-16T09:55:04.390Z,28.94
2018-07-16T09:56:04.366Z,29.20
2018-07-16T09:57:04.330Z,29.43
2018-07-16T09:58:04.295Z,29.44
2018-07-16T09:59:04.326Z,29.27
2018-07-16T10:00:04.397Z,29.16
2018-07-16T10:01:04.291Z,29.24
2018-07-16T10:02:04.327Z,29.37
2018-07-16T10:03:04.396Z,29.37
2018-07-16T10:04:04.334Z,29.52
2018-07-16T10:05:04.413Z,29.40
2018-07-16T10:06:04.397Z,29.57
2018-07-16T10:07:04.334Z,29.70
2018-07-16T10:08:04.399Z,29.72
2018-07-16T10:09:04.334Z,29.81
2018-07-16T10:10:04.270Z,29.97
2018-07-16T10:11:04.440Z,29.88
2018-07-16T10:12:04.268Z,29.35
2018-07-16T10:13:04.354Z,29.29
2018-07-16T10:14:04.315Z,29.43
2018-07-16T10:15:04.336Z,29.34
2018-07-16T10:16:04.278Z,29.62
2018-07-16T10:17:04.357Z,29.91
2018-07-16T10:18:04.388Z,30.21
2018-07-16T10:19:04.360Z,30.45
2018-07-16T10:20:04.470Z,30.64
2018-07-16T10:21:04.441Z,30.80
2018-07-16T10:22:04.375Z,30.90
2018-07-16T10:23:04.443Z,30.86
2018-07-16T10:24:04.319Z,30.83
2018-07-16T10:25:04.371Z,30.86
2018-07-16T10:26:04.372Z,30.57
2018-07-16T10:27:04.442Z,30.76
2018-07-16T10:28:04.365Z,30.76
2018-07-16T10:29:04.312Z,30.62
2018-07-16T10:30:04.327Z,30.55
2018-07-16T10:31:04.380Z,30.71
2018-07-16T10:32:04.388Z,30.39
2018-07-16T10:33:04.444Z,30.13
2018-07-16T10:34:04.392Z,30.06
2018-07-16T10:35:04.458Z,30.26
2018-07-16T10:36:04.397Z,30.26
2018-07-16T10:37:04.469Z,30.28
2018-07-16T10:38:04.399Z,30.31
2018-07-16T10:39:04.389Z,29.95
2018-07-16T10:40:04.390Z,29.69
2018-07-16T10:41:04.383Z,29.34
2018-07-16T10:42:04.418Z,29.05
2018-07-16T10:43:04.424Z,28.79
2018-07-16T10:44:04.424Z,28.69
2018-07-16T10:45:04.436Z,28.72
2018-07-16T10:46:04.389Z,28.75
2018-07-16T10:47:04.442Z,28.58
2018-07-16T10:48:04.347Z,28.58
2018-07-16T10:49:04.394Z,28.66
2018-07-16T10:50:04.319Z,28.51
2018-07-16T10:51:04.321Z,28.40
2018-07-16T10:52:04.388Z,28.29
2018-07-16T10:53:04.320Z,28.77
2018-07-16T10:54:04.369Z,29.14
2018-07-16T10:55:04.446Z,29.46
2018-07-16T10:56:04.387Z,29.72
2018-07-16T10:57:04.385Z,29.98
2018-07-16T10:58:04.302Z,30.30
2018-07-16T10:59:04.356Z,30.19
2018-07-16T11:00:04.470Z,30.27
2018-07-16T11:01:04.442Z,30.27
2018-07-16T11:02:04.479Z,30.34
2018-07-16T11:03:04.595Z,29.98
2018-07-16T11:04:04.393Z,29.61
2018-07-16T11:05:04.476Z,29.50
2018-07-16T11:06:04.438Z,29.69
2018-07-16T11:07:04.395Z,29.80
2018-07-16T11:08:04.470Z,29.72
2018-07-16T11:09:04.361Z,29.69
2018-07-16T11:10:04.362Z,30.08
2018-07-16T11:11:04.441Z,30.45
2018-07-16T11:12:04.385Z,30.83
2018-07-16T11:13:04.445Z,30.98
2018-07-16T11:14:04.568Z,31.02
2018-07-16T11:15:04.449Z,31.19
2018-07-16T11:16:04.408Z,31.45
2018-07-16T11:17:04.467Z,31.53
2018-07-16T11:18:04.355Z,30.79
2018-07-16T11:19:04.467Z,30.69
2018-07-16T11:20:04.443Z,30.86
2018-07-16T11:21:04.372Z,31.11
2018-07-16T11:22:04.335Z,31.30
2018-07-16T11:23:04.352Z,31.44
2018-07-16T11:24:04.445Z,31.56
2018-07-16T11:25:04.442Z,31.68
2018-07-16T11:26:04.439Z,31.70
2018-07-16T11:27:04.442Z,31.70
2018-07-16T11:28:04.389Z,31.31
2018-07-16T11:29:04.447Z,31.45
2018-07-16T11:30:04.419Z,31.67
2018-07-16T11:31:04.413Z,31.62
2018-07-16T11:32:04.476Z,31.75
2018-07-16T11:33:04.459Z,31.75
2018-07-16T11:34:04.474Z,31.89
2018-07-16T11:35:04.425Z,31.94
2018-07-16T11:36:04.476Z,31.82
2018-07-16T11:37:04.434Z,31.46
2018-07-16T11:38:04.356Z,30.66
2018-07-16T11:39:04.440Z,30.08
2018-07-16T11:40:04.422Z,29.68
2018-07-16T11:41:04.370Z,29.37
2018-07-16T11:42:04.368Z,29.16
2018-07-16T11:43:04.381Z,28.97
2018-07-16T11:44:04.337Z,29.01
2018-07-16T11:45:04.398Z,29.21
2018-07-16T11:46:04.438Z,29.24
2018-07-16T11:47:04.402Z,29.34
2018-07-16T11:48:04.405Z,29.51
2018-07-16T11:49:04.392Z,29.69
2018-07-16T11:50:04.420Z,29.94
2018-07-16T11:51:04.426Z,30.21
2018-07-16T11:52:04.387Z,30.42
2018-07-16T11:53:04.408Z,30.38
2018-07-16T11:54:04.370Z,30.39
2018-07-16T11:55:04.398Z,30.48
2018-07-16T11:56:04.430Z,30.38
2018-07-16T11:57:04.436Z,30.61
2018-07-16T11:58:04.384Z,30.76
2018-07-16T11:59:04.451Z,30.91
2018-07-16T12:00:04.441Z,31.19
2018-07-16T12:01:04.501Z,31.22
2018-07-16T12:02:04.561Z,31.41
2018-07-16T12:03:04.376Z,31.55
2018-07-16T12:04:04.383Z,31.68
2018-07-16T12:05:04.533Z,31.77
2018-07-16T12:06:04.539Z,31.57
2018-07-16T12:07:04.414Z,31.70
2018-07-16T12:08:04.505Z,31.53
2018-07-16T12:09:04.452Z,31.53
2018-07-16T12:10:04.417Z,31.59
2018-07-16T12:11:04.506Z,31.63
2018-07-16T12:12:04.419Z,31.86
2018-07-16T12:13:04.483Z,32.18
2018-07-16T12:14:04.424Z,32.08
2018-07-16T12:15:04.454Z,31.81
2018-07-16T12:16:04.421Z,31.71
2018-07-16T12:17:04.426Z,31.56
2018-07-16T12:18:04.486Z,31.81
2018-07-16T12:19:04.566Z,32.20
2018-07-16T12:20:04.492Z,32.16
2018-07-16T12:21:04.488Z,32.14
2018-07-16T12:22:04.487Z,32.16
2018-07-16T12:23:04.494Z,32.29
2018-07-16T12:24:04.421Z,32.43
2018-07-16T12:25:04.429Z,32.44
2018-07-16T12:26:04.494Z,31.93
2018-07-16T12:27:04.498Z,31.75
2018-07-16T12:28:04.484Z,31.75
2018-07-16T12:29:04.495Z,31.49
2018-07-16T12:30:04.451Z,31.68
2018-07-16T12:31:04.447Z,31.63
2018-07-16T12:32:04.493Z,31.64
2018-07-16T12:33:04.484Z,31.81
2018-07-16T12:34:04.432Z,31.74
2018-07-16T12:35:04.492Z,31.59
2018-07-16T12:36:04.421Z,31.55
2018-07-16T12:37:04.517Z,31.52
2018-07-16T12:38:04.458Z,31.37
2018-07-16T12:39:04.388Z,31.34
2018-07-16T12:40:04.503Z,31.42
2018-07-16T12:41:04.479Z,31.64
2018-07-16T12:42:04.522Z,31.81
2018-07-16T12:43:04.538Z,32.01
2018-07-16T12:44:04.530Z,31.93
2018-07-16T12:45:04.528Z,31.86
2018-07-16T12:46:04.506Z,31.64
2018-07-16T12:47:04.572Z,31.68
2018-07-16T12:48:04.431Z,31.77
2018-07-16T12:49:04.410Z,31.96
2018-07-16T12:50:04.504Z,31.97
2018-07-16T12:51:04.379Z,31.97
2018-07-16T12:52:04.503Z,31.98
2018-07-16T12:53:04.421Z,32.18
2018-07-16T12:54:04.469Z,32.12
2018-07-16T12:55:04.430Z,31.85
2018-07-16T12:56:04.463Z,31.73